createdAt,value
2022-09-01T00:00:34.843Z,73.85
2022-09-01T00:01:34.825Z,74.05
2022-09-01T00:02:34.924Z,74.26
2022-09-01T00:03:34.800Z,74.26
2022-09-01T00:04:34.800Z,73.75
2022-09-01T00:05:34.786Z,73.65
2022-09-01T00:06:34.759Z,73.65
2022-09-01T00:07:34.739Z,74.05
2022-09-01T00:08:34.769Z,74.26
2022-09-01T00:09:34.741Z,74.16
2022-09-01T00:10:34.730Z,74.05
2022-09-01T00:11:34.692Z,73.45
2022-09-01T00:12:34.673Z,73.35
2022-09-01T00:13:34.663Z,73.35
2022-09-01T00:14:36.496Z,73.35
2022-09-01T00:15:34.684Z,73.85
2022-09-01T00:16:34.613Z,74.56
2022-09-01T00:17:34.609Z,73.96
2022-09-01T00:18:34.596Z,74.05
2022-09-01T00:19:34.667Z,74.46
2022-09-01T00:20:34.578Z,74.76
2022-09-01T00:21:34.557Z,75.16
2022-09-01T00:22:34.535Z,75.27
2022-09-01T00:23:34.528Z,74.96
2022-09-01T00:24:34.506Z,74.96
2022-09-01T00:25:34.516Z,75.16
2022-09-01T00:26:34.485Z,75.16
2022-09-01T00:27:34.475Z,75.07
2022-09-01T00:28:34.461Z,74.87
2022-09-01T00:29:34.451Z,74.96
2022-09-01T00:30:34.452Z,75.07
2022-09-01T00:31:34.477Z,75.37
2022-09-01T00:32:34.406Z,75.81
2022-09-01T00:33:34.435Z,75.91
2022-09-01T00:34:34.378Z,75.81
2022-09-01T00:35:37.298Z,75.60
2022-09-01T00:36:34.361Z,75.71
2022-09-01T00:37:34.395Z,75.81
2022-09-01T00:38:34.327Z,75.91
2022-09-01T00:39:34.315Z,75.81
2022-09-01T00:40:34.405Z,76.01
2022-09-01T00:41:34.325Z,75.81
2022-09-01T00:42:34.294Z,75.20
2022-09-01T00:43:34.264Z,75.31
2022-09-01T00:44:34.247Z,75.51
2022-09-01T00:45:34.268Z,75.60
2022-09-01T00:46:34.294Z,75.60
2022-09-01T00:47:34.215Z,75.91
2022-09-01T00:48:34.196Z,75.51
2022-09-01T00:49:35.070Z,74.90
2022-09-01T00:50:34.228Z,75.10
2022-09-01T00:51:34.159Z,75.20
2022-09-01T00:52:34.157Z,75.31
2022-09-01T00:53:34.147Z,75.40
2022-09-01T00:54:34.116Z,75.24
2022-09-01T00:55:34.121Z,75.54
2022-09-01T00:56:34.089Z,75.84
2022-09-01T00:57:34.083Z,75.95
2022-09-01T00:58:34.059Z,76.35
2022-09-01T00:59:34.056Z,76.65
2022-09-01T01:00:34.054Z,76.75
2022-09-01T01:01:34.055Z,76.65
2022-09-01T01:02:34.060Z,76.55
2022-09-01T01:03:34.002Z,76.75
2022-09-01T01:04:33.983Z,76.95
2022-09-01T01:05:34.006Z,77.50
2022-09-01T01:06:33.959Z,77.50
2022-09-01T01:07:33.951Z,77.29
2022-09-01T01:08:34.076Z,77.39
2022-09-01T01:09:33.924Z,77.50
2022-09-01T01:10:33.921Z,77.70
2022-09-01T01:11:33.900Z,78.30
2022-09-01T01:12:33.909Z,78.50
2022-09-01T01:13:33.873Z,78.50
2022-09-01T01:14:33.855Z,78.71
2022-09-01T01:15:33.867Z,78.61
2022-09-01T01:16:33.841Z,78.50
2022-09-01T01:17:33.817Z,78.61
2022-09-01T01:18:33.799Z,78.71
2022-09-01T01:19:37.045Z,78.81
2022-09-01T01:20:33.792Z,78.91
2022-09-01T01:21:33.759Z,79.11
2022-09-01T01:22:33.746Z,79.41
2022-09-01T01:23:33.741Z,79.82
2022-09-01T01:24:33.742Z,79.82
2022-09-01T01:25:33.724Z,79.92
2022-09-01T01:26:33.695Z,79.82
2022-09-01T01:27:33.699Z,79.72
2022-09-01T01:28:33.665Z,79.52
2022-09-01T01:29:33.666Z,79.11
2022-09-01T01:30:33.720Z,79.01
2022-09-01T01:31:33.625Z,79.21
2022-09-01T01:32:33.612Z,79.21
2022-09-01T01:33:33.610Z,78.97
2022-09-01T01:34:33.588Z,78.77
2022-09-01T01:35:33.596Z,78.57
2022-09-01T01:36:33.555Z,78.37
2022-09-01T01:37:33.548Z,78.27
2022-09-01T01:38:33.528Z,77.76
2022-09-01T01:39:33.519Z,77.76
2022-09-01T01:40:33.605Z,77.26
2022-09-01T01:41:33.498Z,77.36
2022-09-01T01:42:33.472Z,77.66
2022-09-01T01:43:33.466Z,77.86
2022-09-01T01:44:33.459Z,78.27
2022-09-01T01:45:33.456Z,78.88
2022-09-01T01:46:33.470Z,79.38
2022-09-01T01:47:33.413Z,78.97
2022-09-01T01:48:33.396Z,78.47
2022-09-01T01:49:33.381Z,78.17
2022-09-01T01:50:33.389Z,78.41
2022-09-01T01:51:33.361Z,78.50
2022-09-01T01:52:33.345Z,78.61
2022-09-01T01:53:33.333Z,78.61
2022-09-01T01:54:33.311Z,78.61
2022-09-01T01:55:33.322Z,78.71
2022-09-01T01:56:33.293Z,78.91
2022-09-01T01:57:33.272Z,79.21
2022-09-01T01:58:33.260Z,79.52
2022-09-01T01:59:33.270Z,79.82
2022-09-01T02:00:33.251Z,80.32
2022-09-01T02:01:33.264Z,80.63
2022-09-01T02:02:33.247Z,80.77
2022-09-01T02:03:33.216Z,80.77
2022-09-01T02:04:33.178Z,80.57
2022-09-01T02:05:33.185Z,80.57
2022-09-01T02:06:33.150Z,80.57
2022-09-01T02:07:33.820Z,80.46
2022-09-01T02:08:33.124Z,80.26
2022-09-01T02:09:33.115Z,80.36
2022-09-01T02:10:33.121Z,80.46
2022-09-01T02:11:33.125Z,80.26
2022-09-01T02:12:33.067Z,80.06
2022-09-01T02:13:33.083Z,79.86
2022-09-01T02:14:33.042Z,79.35
2022-09-01T02:15:33.033Z,79.41
2022-09-01T02:16:33.194Z,79.32
2022-09-01T02:17:33.015Z,79.21
2022-09-01T02:18:32.991Z,79.21
2022-09-01T02:19:32.983Z,79.01
2022-09-01T02:20:32.983Z,78.91
2022-09-01T02:21:32.954Z,79.11
2022-09-01T02:22:32.933Z,79.01
2022-09-01T02:23:32.947Z,79.01
2022-09-01T02:24:32.930Z,78.81
2022-09-01T02:25:32.972Z,78.71
2022-09-01T02:26:32.925Z,78.00
2022-09-01T02:27:32.909Z,77.90
2022-09-01T02:28:32.873Z,77.90
2022-09-01T02:29:37.091Z,78.20
2022-09-01T02:30:32.893Z,78.61
2022-09-01T02:31:32.816Z,78.81
2022-09-01T02:32:32.820Z,78.10
2022-09-01T02:33:32.819Z,77.80
2022-09-01T02:34:32.793Z,78.10
2022-09-01T02:35:32.826Z,77.80
2022-09-01T02:36:32.888Z,78.20
2022-09-01T02:37:32.739Z,77.80
2022-09-01T02:38:32.718Z,77.39
2022-09-01T02:39:32.716Z,77.19
2022-09-01T02:40:32.824Z,76.99
2022-09-01T02:41:32.704Z,76.69
2022-09-01T02:42:32.667Z,76.79
2022-09-01T02:43:32.690Z,76.69
2022-09-01T02:44:32.643Z,76.99
2022-09-01T02:45:32.680Z,77.39
2022-09-01T02:46:32.619Z,76.79
2022-09-01T02:47:32.609Z,76.79
2022-09-01T02:48:32.596Z,76.79
2022-09-01T02:49:32.589Z,77.09
2022-09-01T02:50:32.562Z,77.39
2022-09-01T02:51:32.553Z,77.80
2022-09-01T02:52:32.531Z,77.80
2022-09-01T02:53:32.526Z,77.76
2022-09-01T02:54:32.542Z,77.60
2022-09-01T02:55:32.499Z,77.76
2022-09-01T02:56:32.484Z,77.66
2022-09-01T02:57:32.471Z,77.36
2022-09-01T02:58:32.451Z,77.66
2022-09-01T02:59:32.464Z,77.66
2022-09-01T03:00:32.436Z,77.26
2022-09-01T03:01:32.507Z,77.46
2022-09-01T03:02:32.411Z,77.76
2022-09-01T03:03:32.398Z,77.56
2022-09-01T03:04:32.424Z,77.86
2022-09-01T03:05:32.390Z,78.10
2022-09-01T03:06:32.383Z,78.71
2022-09-01T03:07:32.349Z,78.61
2022-09-01T03:08:32.325Z,78.81
2022-09-01T03:09:32.397Z,78.81
2022-09-01T03:10:32.295Z,78.81
2022-09-01T03:11:32.298Z,78.91
2022-09-01T03:12:32.295Z,79.01
2022-09-01T03:13:32.260Z,79.11
2022-09-01T03:14:32.264Z,79.32
2022-09-01T03:15:32.238Z,79.41
2022-09-01T03:16:32.367Z,79.01
2022-09-01T03:17:32.248Z,78.95
2022-09-01T03:18:32.253Z,78.95
2022-09-01T03:19:32.236Z,78.95
2022-09-01T03:20:32.191Z,79.25
2022-09-01T03:21:32.192Z,79.35
2022-09-01T03:22:32.161Z,79.66
2022-09-01T03:23:32.141Z,79.66
2022-09-01T03:24:32.111Z,79.75
2022-09-01T03:25:32.105Z,79.86
2022-09-01T03:26:32.092Z,80.16
2022-09-01T03:27:32.085Z,80.26
2022-09-01T03:28:32.096Z,80.16
2022-09-01T03:29:38.073Z,80.16
2022-09-01T03:30:32.043Z,80.36
2022-09-01T03:31:32.126Z,80.87
2022-09-01T03:32:32.020Z,80.97
2022-09-01T03:33:32.029Z,80.57
2022-09-01T03:34:31.996Z,80.26
2022-09-01T03:35:32.034Z,80.36
2022-09-01T03:36:32.021Z,80.36
2022-09-01T03:37:31.970Z,80.36
2022-09-01T03:38:31.967Z,80.16
2022-09-01T03:39:31.945Z,80.06
2022-09-01T03:40:31.945Z,80.46
2022-09-01T03:41:31.937Z,80.57
2022-09-01T03:42:31.914Z,80.57
2022-09-01T03:43:35.842Z,79.86
2022-09-01T03:44:31.867Z,79.46
2022-09-01T03:45:31.873Z,79.35
2022-09-01T03:46:36.247Z,79.86
2022-09-01T03:47:31.839Z,79.86
2022-09-01T03:48:31.831Z,79.75
2022-09-01T03:49:31.843Z,80.26
2022-09-01T03:50:31.807Z,80.60
2022-09-01T03:51:31.780Z,80.80
2022-09-01T03:52:31.774Z,81.01
2022-09-01T03:53:31.782Z,80.50
2022-09-01T03:54:31.761Z,80.10
2022-09-01T03:55:31.719Z,80.10
2022-09-01T03:56:31.690Z,80.30
2022-09-01T03:57:32.607Z,80.20
2022-09-01T03:58:31.691Z,80.30
2022-09-01T03:59:31.672Z,80.24
2022-09-01T04:00:31.654Z,80.34
2022-09-01T04:01:31.702Z,80.54
2022-09-01T04:02:31.721Z,80.54
2022-09-01T04:03:31.658Z,80.64
2022-09-01T04:04:31.615Z,80.74
2022-09-01T04:05:31.599Z,81.45
2022-09-01T04:06:31.577Z,81.65
2022-09-01T04:07:31.560Z,81.85
2022-09-01T04:08:32.863Z,81.96
2022-09-01T04:09:31.474Z,82.26
2022-09-01T04:10:31.527Z,82.36
2022-09-01T04:11:31.501Z,82.67
2022-09-01T04:12:31.493Z,82.87
2022-09-01T04:13:31.460Z,83.11
2022-09-01T04:14:31.410Z,83.21
2022-09-01T04:15:31.421Z,83.31
2022-09-01T04:16:31.517Z,83.31
2022-09-01T04:17:31.412Z,83.51
2022-09-01T04:18:31.377Z,83.61
2022-09-01T04:19:31.335Z,83.82
2022-09-01T04:20:31.380Z,84.12
2022-09-01T04:21:31.311Z,84.22
2022-09-01T04:22:31.307Z,84.33
2022-09-01T04:23:31.309Z,84.63
2022-09-01T04:24:31.266Z,84.93
2022-09-01T04:25:31.260Z,85.03
2022-09-01T04:26:33.436Z,85.07
2022-09-01T04:27:31.219Z,85.27
2022-09-01T04:28:31.239Z,85.38
2022-09-01T04:29:31.200Z,85.17
2022-09-01T04:30:31.209Z,85.17
2022-09-01T04:31:31.291Z,85.27
2022-09-01T04:32:31.177Z,85.48
2022-09-01T04:33:31.152Z,85.68
2022-09-01T04:34:31.142Z,85.78
2022-09-01T04:35:31.120Z,85.58
2022-09-01T04:36:31.107Z,85.38
2022-09-01T04:37:31.102Z,85.38
2022-09-01T04:38:31.081Z,85.38
2022-09-01T04:39:31.071Z,85.48
2022-09-01T04:40:31.099Z,85.48
2022-09-01T04:41:31.070Z,85.48
2022-09-01T04:42:31.055Z,85.31
2022-09-01T04:43:31.010Z,85.38
2022-09-01T04:44:31.022Z,85.58
2022-09-01T04:45:31.034Z,85.27
2022-09-01T04:46:30.973Z,85.17
2022-09-01T04:47:35.276Z,85.07
2022-09-01T04:49:56.922Z,85.07
2022-09-01T04:50:06.916Z,85.38
2022-09-01T04:51:02.014Z,85.58
2022-09-01T04:52:01.897Z,85.48
2022-09-01T04:53:01.922Z,85.48
2022-09-01T04:54:01.880Z,85.27
2022-09-01T04:55:01.869Z,85.27
2022-09-01T04:56:01.844Z,85.27
2022-09-01T04:57:01.823Z,85.38
2022-09-01T04:58:01.824Z,85.38
2022-09-01T04:59:01.783Z,85.38
2022-09-01T05:00:01.795Z,85.27
2022-09-01T05:01:01.779Z,85.17
2022-09-01T05:02:01.836Z,85.07
2022-09-01T05:03:01.757Z,84.97
2022-09-01T05:04:03.978Z,84.97
2022-09-01T05:05:01.713Z,85.07
2022-09-01T05:06:01.696Z,85.07
2022-09-01T05:07:01.690Z,84.67
2022-09-01T05:08:01.682Z,84.47
2022-09-01T05:09:01.666Z,84.56
2022-09-01T05:10:01.697Z,84.56
2022-09-01T05:11:01.623Z,84.47
2022-09-01T05:12:01.610Z,84.16
2022-09-01T05:13:01.644Z,84.06
2022-09-01T05:14:01.596Z,83.96
2022-09-01T05:15:01.571Z,83.96
2022-09-01T05:16:01.615Z,83.96
2022-09-01T05:17:01.569Z,83.96
2022-09-01T05:18:01.540Z,83.96
2022-09-01T05:19:01.537Z,83.86
2022-09-01T05:20:01.509Z,83.55
2022-09-01T05:21:01.484Z,82.70
2022-09-01T05:22:01.499Z,82.30
2022-09-01T05:23:01.457Z,82.20
2022-09-01T05:24:01.519Z,81.90
2022-09-01T05:25:01.432Z,81.99
2022-09-01T05:26:01.477Z,81.90
2022-09-01T05:27:01.428Z,81.65
2022-09-01T05:28:01.394Z,81.35
2022-09-01T05:29:01.396Z,80.74
2022-09-01T05:30:01.377Z,80.64
2022-09-01T05:31:01.438Z,80.50
2022-09-01T05:32:01.369Z,79.90
2022-09-01T05:33:01.795Z,79.19
2022-09-01T05:34:01.334Z,78.78
2022-09-01T05:35:01.293Z,78.58
2022-09-01T05:36:01.306Z,78.14
2022-09-01T05:37:01.301Z,77.73
2022-09-01T05:38:01.272Z,77.64
2022-09-01T05:39:01.256Z,77.23
2022-09-01T05:40:01.408Z,76.79
2022-09-01T05:41:01.215Z,77.09
2022-09-01T05:42:01.518Z,76.39
2022-09-01T05:43:01.192Z,76.18
2022-09-01T05:44:01.195Z,75.84
2022-09-01T05:45:01.169Z,75.44
2022-09-01T05:46:06.903Z,75.64
2022-09-01T05:47:01.241Z,75.13
2022-09-01T05:48:01.170Z,74.43
2022-09-01T05:49:01.110Z,74.19
2022-09-01T05:50:01.104Z,74.19
2022-09-01T05:51:01.087Z,73.99
2022-09-01T05:52:01.112Z,73.85
2022-09-01T05:53:01.136Z,73.25
2022-09-01T05:54:01.053Z,73.35
2022-09-01T05:55:01.100Z,73.35
2022-09-01T05:56:01.036Z,73.55
2022-09-01T05:57:17.425Z,72.85
2022-09-01T05:58:01.071Z,73.01
2022-09-01T06:00:00.972Z,71.80
2022-09-01T06:01:00.963Z,71.80
2022-09-01T06:02:01.216Z,71.30
2022-09-01T06:03:01.085Z,71.50
2022-09-01T06:04:00.924Z,71.70
2022-09-01T06:05:00.914Z,71.50
2022-09-01T06:06:00.934Z,71.80
2022-09-01T06:07:09.653Z,72.20
2022-09-01T06:08:00.937Z,72.20
2022-09-01T06:09:00.835Z,71.50
2022-09-01T06:10:00.912Z,71.40
2022-09-01T06:11:00.836Z,71.50
2022-09-01T06:12:00.839Z,71.40
2022-09-01T06:13:00.842Z,70.36
2022-09-01T06:14:00.819Z,70.26
2022-09-01T06:15:00.820Z,70.46
2022-09-01T06:16:00.847Z,70.36
2022-09-01T06:17:00.736Z,70.26
2022-09-01T06:18:00.725Z,69.95
2022-09-01T06:19:00.720Z,70.15
2022-09-01T06:20:00.696Z,69.95
2022-09-01T06:21:00.711Z,69.72
2022-09-01T06:22:00.673Z,69.32
2022-09-01T06:23:00.659Z,68.71
2022-09-01T06:24:00.649Z,68.31
2022-09-01T06:25:02.992Z,68.08
2022-09-01T06:26:00.638Z,68.44
2022-09-01T06:27:00.597Z,68.65
2022-09-01T06:28:00.599Z,67.94
2022-09-01T06:29:00.580Z,67.21
2022-09-01T06:30:00.574Z,66.80
2022-09-01T06:31:00.676Z,66.57
2022-09-01T06:32:00.540Z,65.67
2022-09-01T06:33:00.535Z,65.44
2022-09-01T06:34:00.514Z,65.44
2022-09-01T06:35:00.510Z,64.83
2022-09-01T06:36:00.537Z,64.73
2022-09-01T06:37:00.470Z,64.63
2022-09-01T06:38:00.455Z,64.93
2022-09-01T06:39:00.467Z,64.23
2022-09-01T06:40:00.434Z,64.53
2022-09-01T06:41:00.437Z,65.23
2022-09-01T06:42:00.416Z,65.33
2022-09-01T06:43:00.408Z,65.13
2022-09-01T06:44:00.379Z,65.87
2022-09-01T06:45:00.365Z,65.47
2022-09-01T06:46:00.356Z,64.96
2022-09-01T06:47:00.437Z,66.07
2022-09-01T06:48:00.541Z,64.96
2022-09-01T06:49:00.332Z,66.97
2022-09-01T06:50:00.297Z,64.46
2022-09-01T06:51:17.902Z,63.65
2022-09-01T06:52:00.309Z,63.12
2022-09-01T06:54:00.277Z,64.13
2022-09-01T06:55:03.396Z,63.53
2022-09-01T06:56:00.232Z,63.22
2022-09-01T06:57:00.476Z,63.70
2022-09-01T06:58:05.884Z,63.59
2022-09-01T06:59:00.183Z,63.59
2022-09-01T07:00:00.174Z,62.89
2022-09-01T07:01:00.151Z,62.19
2022-09-01T07:02:02.433Z,62.19
2022-09-01T07:03:00.119Z,62.49
2022-09-01T07:04:00.115Z,61.88
2022-09-01T07:05:00.092Z,62.79
2022-09-01T07:06:02.310Z,62.49
2022-09-01T07:07:01.793Z,63.19
2022-09-01T07:43:06.614Z,62.76
2022-09-01T07:43:11.763Z,59.66
2022-09-01T07:44:11.737Z,59.66
2022-09-01T07:45:27.914Z,59.26
2022-09-01T07:47:20.182Z,59.13
2022-09-01T07:48:11.731Z,60.44
2022-09-01T07:50:25.346Z,59.74
2022-09-01T07:52:11.638Z,58.20
2022-09-01T07:53:11.641Z,58.00
2022-09-01T07:54:11.608Z,58.11
2022-09-01T07:55:11.587Z,57.50
2022-09-01T07:56:11.586Z,57.80
2022-09-01T07:57:11.579Z,57.50
2022-09-01T07:58:11.562Z,58.20
2022-09-01T07:59:14.829Z,57.60
2022-09-01T08:00:11.526Z,57.78
2022-09-01T08:01:11.536Z,57.78
2022-09-01T08:02:11.648Z,57.28
2022-09-01T08:03:11.761Z,57.78
2022-09-01T08:04:11.500Z,56.48
2022-09-01T08:05:11.458Z,56.48
2022-09-01T08:06:11.490Z,55.98
2022-09-01T08:07:15.571Z,57.48
2022-09-01T08:08:19.165Z,55.57
2022-09-01T08:09:25.342Z,56.55
2022-09-01T08:10:11.403Z,56.65
2022-09-01T08:11:11.402Z,56.45
2022-09-01T08:12:11.382Z,55.92
2022-09-01T08:13:15.315Z,56.02
2022-09-01T08:14:11.343Z,55.62
2022-09-01T08:15:41.552Z,55.42
2022-09-01T08:16:18.954Z,54.60
2022-09-01T08:17:34.223Z,56.59
2022-09-01T08:19:54.347Z,53.89
2022-09-01T08:20:55.335Z,54.69
2022-09-01T08:21:55.315Z,53.89
2022-09-01T08:22:55.289Z,53.49
2022-09-01T08:23:55.287Z,54.79
2022-09-01T08:24:55.268Z,54.60
2022-09-01T08:25:55.317Z,55.09
2022-09-01T08:26:55.246Z,55.07
2022-09-01T08:28:02.409Z,54.57
2022-09-01T08:28:55.597Z,54.47
2022-09-01T08:29:55.227Z,54.64
2022-09-01T08:30:55.234Z,53.54
2022-09-01T08:31:55.251Z,53.22
2022-09-01T08:32:55.165Z,50.62
2022-09-01T08:33:55.156Z,50.79
2022-09-01T08:34:55.140Z,50.00
2022-09-01T08:35:55.151Z,46.38
2022-09-01T08:36:55.121Z,46.12
2022-09-01T08:37:55.111Z,44.16
2022-09-01T08:38:55.115Z,44.07
2022-09-01T08:39:55.083Z,40.86
2022-09-01T08:40:56.841Z,39.25
2022-09-01T08:41:55.068Z,37.73
2022-09-01T08:42:55.054Z,38.01
2022-09-01T08:43:55.022Z,38.49
2022-09-01T08:44:55.009Z,36.98
2022-09-01T08:45:55.150Z,36.75
2022-09-01T08:46:54.977Z,35.60
2022-09-01T08:48:29.082Z,35.44
2022-09-01T08:49:24.690Z,36.38
2022-09-01T08:49:54.960Z,37.19
2022-09-01T08:50:55.436Z,37.79
2022-09-01T08:51:54.938Z,38.64
2022-09-01T08:52:54.907Z,38.60
2022-09-01T08:53:54.895Z,38.67
2022-09-01T08:54:54.884Z,36.87
2022-09-01T08:55:54.916Z,36.87
2022-09-01T08:56:54.851Z,37.82
2022-09-01T08:57:58.999Z,37.70
2022-09-01T08:58:54.869Z,37.87
2022-09-01T08:59:54.817Z,35.20
2022-09-01T09:00:55.078Z,35.30
2022-09-01T09:01:54.882Z,37.98
2022-09-01T09:02:54.810Z,35.50
2022-09-01T09:03:54.772Z,37.05
2022-09-01T09:04:54.757Z,34.77
2022-09-01T09:05:54.791Z,32.82
2022-09-01T09:06:54.741Z,35.50
2022-09-01T09:08:06.449Z,35.88
2022-09-01T09:08:54.715Z,34.28
2022-09-01T09:09:54.695Z,35.25
2022-09-01T09:10:54.743Z,33.29
2022-09-01T09:11:54.685Z,36.15
2022-09-01T09:12:55.123Z,34.59
2022-09-01T09:13:54.646Z,34.67
2022-09-01T09:14:54.642Z,33.79
2022-09-01T09:16:07.499Z,32.82
2022-09-01T09:16:54.616Z,32.87
2022-09-01T09:17:59.557Z,34.28
2022-09-01T09:18:55.275Z,34.95
2022-09-01T09:19:54.581Z,34.55
2022-09-01T09:20:54.573Z,34.74
2022-09-01T09:21:54.558Z,35.61
2022-09-01T09:22:54.533Z,34.61
2022-09-01T09:23:55.899Z,35.58
2022-09-01T09:24:55.040Z,34.20
2022-09-01T09:25:54.527Z,33.72
2022-09-01T09:26:54.497Z,34.30
2022-09-01T09:28:01.741Z,34.22
2022-09-01T09:28:54.522Z,34.81
2022-09-01T09:29:54.447Z,33.84
2022-09-01T09:30:54.499Z,34.82
2022-09-01T09:31:54.438Z,34.03
2022-09-01T09:33:44.330Z,33.74
2022-09-01T09:33:54.686Z,32.95
2022-09-01T09:34:54.420Z,34.39
2022-09-01T09:35:54.463Z,33.61
2022-09-01T09:36:57.008Z,31.75
2022-09-01T09:37:54.356Z,33.16
2022-09-01T09:38:54.352Z,33.97
2022-09-01T09:39:54.336Z,34.74
2022-09-01T09:41:15.949Z,35.10
2022-09-01T09:41:54.584Z,34.89
2022-09-01T09:42:54.296Z,32.01
2022-09-01T09:43:54.298Z,32.69
2022-09-01T09:44:54.313Z,32.41
2022-09-01T09:45:54.307Z,32.51
2022-09-01T09:46:54.293Z,32.52
2022-09-01T09:47:54.242Z,33.69
2022-09-01T09:48:54.232Z,33.48
2022-09-01T09:49:54.206Z,34.77
2022-09-01T09:50:54.196Z,34.17
2022-09-01T09:51:54.207Z,33.79
2022-09-01T09:52:54.177Z,34.00
2022-09-01T09:53:54.351Z,32.60
2022-09-01T09:54:54.146Z,34.56
2022-09-01T09:55:56.279Z,32.69
2022-09-01T09:56:54.129Z,32.97
2022-09-01T09:57:54.122Z,33.18
2022-09-01T09:58:54.113Z,33.80
2022-09-01T09:59:59.126Z,36.63
2022-09-01T10:00:54.126Z,35.03
2022-09-01T10:01:54.112Z,33.74
2022-09-01T10:02:54.066Z,31.18
2022-09-01T10:03:54.106Z,33.07
2022-09-01T10:04:55.970Z,34.74
2022-09-01T10:05:54.047Z,32.87
2022-09-01T10:06:54.023Z,33.39
2022-09-01T10:07:54.035Z,34.38
2022-09-01T10:08:54.017Z,33.20
2022-09-01T10:09:53.995Z,33.51
2022-09-01T10:10:57.445Z,34.39
2022-09-01T10:11:53.968Z,33.70
2022-09-01T10:12:53.941Z,35.36
2022-09-01T10:13:53.937Z,32.29
2022-09-01T10:14:53.917Z,33.95
2022-09-01T10:15:53.932Z,35.02
2022-09-01T10:16:53.920Z,33.02
2022-09-01T10:18:19.568Z,33.34
2022-09-01T10:18:53.882Z,33.74
2022-09-01T10:19:53.859Z,32.67
2022-09-01T10:20:53.880Z,34.25
2022-09-01T10:21:53.832Z,33.49
2022-09-01T10:22:53.835Z,34.79
2022-09-01T10:23:53.992Z,33.80
2022-09-01T10:24:53.808Z,34.48
2022-09-01T10:25:53.793Z,32.51
2022-09-01T10:26:53.801Z,33.00
2022-09-01T10:27:55.024Z,33.89
2022-09-01T10:28:53.782Z,33.79
2022-09-01T10:30:12.183Z,35.54
2022-09-01T10:30:53.800Z,33.97
2022-09-01T10:32:09.422Z,32.38
2022-09-01T10:32:56.149Z,31.38
2022-09-01T10:33:53.718Z,31.76
2022-09-01T10:34:53.696Z,32.41
2022-09-01T10:35:53.711Z,30.35
2022-09-01T10:36:55.763Z,31.25
2022-09-01T10:37:53.651Z,31.45
2022-09-01T10:38:59.949Z,30.18
2022-09-01T10:39:53.642Z,32.56
2022-09-01T10:40:53.691Z,31.48
2022-09-01T10:42:00.575Z,31.31
2022-09-01T10:42:53.613Z,31.52
2022-09-01T10:43:54.025Z,32.03
2022-09-01T10:44:53.574Z,34.63
2022-09-01T10:45:58.911Z,35.37
2022-09-01T10:46:59.846Z,35.70
2022-09-01T10:47:53.689Z,36.52
2022-09-01T10:48:55.289Z,35.35
2022-09-01T10:49:53.526Z,35.35
2022-09-01T10:50:53.531Z,36.01
2022-09-01T10:51:56.692Z,34.97
2022-09-01T10:59:58.258Z,38.86
2022-09-01T11:01:18.963Z,37.66
2022-09-01T11:02:59.001Z,36.19
2022-09-01T11:03:58.742Z,34.10
2022-09-01T11:04:58.648Z,32.42
2022-09-01T11:06:11.401Z,34.49
2022-09-01T11:07:14.466Z,34.08
2022-09-01T11:08:01.289Z,33.89
2022-09-01T11:08:58.538Z,33.20
2022-09-01T11:10:08.734Z,33.70
2022-09-01T11:10:58.581Z,35.40
2022-09-01T11:11:58.521Z,35.58
2022-09-01T11:12:58.494Z,33.77
2022-09-01T11:13:58.493Z,31.79
2022-09-01T11:14:58.470Z,32.65
2022-09-01T11:16:00.559Z,33.15
2022-09-01T11:16:58.473Z,31.85
2022-09-01T11:17:58.445Z,33.92
2022-09-01T11:18:58.453Z,31.85
2022-09-01T11:19:58.414Z,32.74
2022-09-01T11:20:58.440Z,32.67
2022-09-01T11:21:58.391Z,32.69
2022-09-01T11:22:58.399Z,33.22
2022-09-01T11:23:58.364Z,34.17
2022-09-01T11:25:02.591Z,35.61
2022-09-01T11:26:58.351Z,36.88
2022-09-01T11:27:58.342Z,35.83
2022-09-01T11:28:58.304Z,36.11
2022-09-01T11:29:58.308Z,36.88
2022-09-01T11:30:58.311Z,36.90
2022-09-01T11:31:58.324Z,39.06
2022-09-01T11:32:58.263Z,38.39
2022-09-01T11:33:58.267Z,37.58
2022-09-01T11:34:58.246Z,37.49
2022-09-01T11:35:58.247Z,36.77
2022-09-01T11:36:58.214Z,37.76
2022-09-01T11:37:58.209Z,37.66
2022-09-01T11:38:58.192Z,37.66
2022-09-01T11:39:58.236Z,38.29
2022-09-01T11:40:58.266Z,38.70
2022-09-01T11:42:00.828Z,40.01
2022-09-01T11:42:58.149Z,40.03
2022-09-01T11:43:58.149Z,39.45
2022-09-01T11:44:58.131Z,39.02
2022-09-01T11:45:58.225Z,37.99
2022-09-01T11:46:58.094Z,41.31
2022-09-01T11:47:58.084Z,36.55
2022-09-01T11:48:58.065Z,36.95
2022-09-01T11:49:58.114Z,37.15
2022-09-01T11:50:58.050Z,37.56
2022-09-01T11:51:58.035Z,37.87
2022-09-01T11:53:02.588Z,37.68
2022-09-01T11:53:58.038Z,37.49
2022-09-01T11:54:58.004Z,37.12
2022-09-01T11:55:58.022Z,37.87
2022-09-01T11:56:57.967Z,36.85
2022-09-01T11:57:57.960Z,35.33
2022-09-01T12:00:08.959Z,35.12
2022-09-01T12:01:09.967Z,35.91
2022-09-01T12:02:10.021Z,35.79
2022-09-01T12:03:10.173Z,34.81
2022-09-01T12:04:09.911Z,37.96
2022-09-01T12:05:09.914Z,35.02
2022-09-01T12:06:09.902Z,34.92
2022-09-01T12:07:10.893Z,35.71
2022-09-01T12:08:09.853Z,34.05
2022-09-01T12:09:09.861Z,35.07
2022-09-01T12:10:09.826Z,35.50
2022-09-01T12:11:09.851Z,36.39
2022-09-01T12:12:09.799Z,36.85
2022-09-01T12:13:09.807Z,35.85
2022-09-01T12:14:11.608Z,36.02
2022-09-01T12:15:09.773Z,35.71
2022-09-01T12:16:18.665Z,34.34
2022-09-01T12:17:09.848Z,35.55
2022-09-01T12:18:09.755Z,35.86
2022-09-01T12:19:09.721Z,35.98
2022-09-01T12:20:09.703Z,36.47
2022-09-01T12:21:09.699Z,37.84
2022-09-01T12:22:09.704Z,35.57
2022-09-01T12:23:09.674Z,36.39
2022-09-01T12:24:09.655Z,37.30
2022-09-01T12:25:09.642Z,37.12
2022-09-01T12:26:09.648Z,37.71
2022-09-01T12:27:09.635Z,38.72
2022-09-01T12:28:11.135Z,39.14
2022-09-01T12:29:09.594Z,39.43
2022-09-01T12:30:09.578Z,39.45
2022-09-01T12:31:09.595Z,39.37
2022-09-01T12:32:09.622Z,40.07
2022-09-01T12:33:25.026Z,40.07
2022-09-01T12:34:09.531Z,39.49
2022-09-01T12:35:11.680Z,40.88
2022-09-01T12:36:09.521Z,39.39
2022-09-01T12:37:09.511Z,39.89
2022-09-01T12:38:09.691Z,39.69
2022-09-01T12:39:09.880Z,38.88
2022-09-01T12:40:09.471Z,38.85
2022-09-01T12:41:09.484Z,37.95
2022-09-01T12:42:09.438Z,38.15
2022-09-01T12:43:09.409Z,39.42
2022-09-01T12:44:09.413Z,39.53
2022-09-01T12:45:09.391Z,38.64
2022-09-01T12:46:09.491Z,40.72
2022-09-01T12:47:09.380Z,39.61
2022-09-01T12:48:09.359Z,39.10
2022-09-01T12:49:09.416Z,37.99
2022-09-01T12:50:24.173Z,38.37
2022-09-01T12:51:09.682Z,37.58
2022-09-01T12:52:09.393Z,37.58
2022-09-01T12:53:09.297Z,36.88
2022-09-01T12:54:09.548Z,37.00
2022-09-01T12:55:09.316Z,38.88
2022-09-01T12:56:09.261Z,38.49
2022-09-01T12:57:09.261Z,37.79
2022-09-01T12:58:09.214Z,37.48
2022-09-01T12:59:15.890Z,37.20
2022-09-01T13:00:09.194Z,38.76
2022-09-01T13:01:16.356Z,37.38
2022-09-01T13:02:09.378Z,38.09
2022-09-01T13:03:09.247Z,38.29
2022-09-01T13:04:09.135Z,37.20
2022-09-01T13:05:09.133Z,37.79
2022-09-01T13:06:09.125Z,37.62
2022-09-01T13:07:09.222Z,39.08
2022-09-01T13:08:09.086Z,38.40
2022-09-01T13:09:10.266Z,39.51
2022-09-01T13:10:09.804Z,39.22
2022-09-01T13:11:09.354Z,39.31
2022-09-01T13:12:09.095Z,38.42
2022-09-01T13:13:09.050Z,39.22
2022-09-01T13:14:09.010Z,38.42
2022-09-01T13:15:09.088Z,40.01
2022-09-01T13:16:09.032Z,38.90
2022-09-01T13:17:10.058Z,38.21
2022-09-01T13:18:08.968Z,37.51
2022-09-01T13:19:10.400Z,37.34
2022-09-01T13:20:08.931Z,38.03
2022-09-01T13:21:09.008Z,38.40
2022-09-01T13:22:08.918Z,37.71
2022-09-01T13:23:09.107Z,37.89
2022-09-01T13:24:08.872Z,36.90
2022-09-01T13:25:08.871Z,37.08
2022-09-01T13:26:08.870Z,36.59
2022-09-01T13:27:24.309Z,36.31
2022-09-01T13:28:08.835Z,37.70
2022-09-01T13:29:08.812Z,37.79
2022-09-01T13:30:08.792Z,37.87
2022-09-01T13:32:24.541Z,35.89
2022-09-01T13:33:24.117Z,37.18
2022-09-01T13:34:10.423Z,36.67
2022-09-01T13:35:08.740Z,35.58
2022-09-01T13:37:08.760Z,36.90
2022-09-01T13:38:08.692Z,37.60
2022-09-01T13:39:08.696Z,37.49
2022-09-01T13:40:09.377Z,36.98
2022-09-01T13:41:08.751Z,36.39
2022-09-01T13:42:08.737Z,38.01
2022-09-01T13:43:08.636Z,38.59
2022-09-01T13:44:08.633Z,37.89
2022-09-01T13:45:08.614Z,37.48
2022-09-01T13:50:06.880Z,37.91